Time;durP1;ratioP1;P1;durP2;ratioP2;P2;SDS_P1;SDS_P2;PMS_P1;PMS_P2;Temp;Humidity;BMP_temperature;BMP_pressure;BME280_temperature;BME280_humidity;BME280_pressure;Samples;Min_cycle;Max_cycle;Signal;HPM_P1;HPM_P2
2023/06/09 00:02:04;;;;;;;1.23;0.80;;;;;;;17.95;66.52;99463.63;5111310;28;20408;-83
2023/06/09 00:04:32;;;;;;;1.30;1.13;;;;;;;17.96;66.34;99477.81;5111148;28;20031;-84
2023/06/09 00:06:58;;;;;;;4.82;1.90;;;;;;;17.97;66.56;99483.09;5092889;28;20067;-84
2023/06/09 00:09:24;;;;;;;2.50;1.17;;;;;;;17.98;66.93;99490.16;5111504;28;20031;-84
2023/06/09 00:11:50;;;;;;;5.00;1.38;;;;;;;17.96;67.07;99507.19;5111340;28;20088;-84
2023/06/09 00:14:16;;;;;;;1.48;0.90;;;;;;;17.70;67.58;99486.13;5093276;28;20039;-84
2023/06/09 00:16:46;;;;;;;1.67;1.15;;;;;;;17.81;67.63;99493.63;5092028;28;20512;-84
2023/06/09 00:19:16;;;;;;;2.13;1.40;;;;;;;17.71;67.85;99487.84;5090569;28;20036;-84
2023/06/09 00:21:50;;;;;;;1.15;1.05;;;;;;;17.77;68.00;99497.34;5073175;28;20450;-83
2023/06/09 00:24:23;;;;;;;2.17;1.13;;;;;;;17.71;68.18;99478.97;5106127;28;20032;-84
2023/06/09 00:26:50;;;;;;;0.95;0.85;;;;;;;18.04;67.77;99511.22;5090354;28;20293;-84
2023/06/09 00:29:16;;;;;;;2.20;1.50;;;;;;;17.83;67.56;99485.53;5090519;28;20514;-84
2023/06/09 00:31:42;;;;;;;1.77;0.90;;;;;;;17.59;67.60;99435.06;5111202;28;20609;-84
2023/06/09 00:34:08;;;;;;;2.47;2.13;;;;;;;17.91;68.08;99495.88;5110980;28;20035;-83
2023/06/09 00:36:34;;;;;;;1.20;0.95;;;;;;;17.68;67.88;99471.97;5109188;28;20046;-83
2023/06/09 00:38:59;;;;;;;1.70;1.23;;;;;;;17.51;68.85;99482.59;5110436;28;20069;-83
2023/06/09 00:41:25;;;;;;;1.33;1.10;;;;;;;17.47;68.48;99473.88;5110875;28;20023;-83
2023/06/09 00:43:53;;;;;;;2.15;1.42;;;;;;;17.48;69.25;99491.59;5110066;28;20031;-84
2023/06/09 00:46:19;;;;;;;2.05;1.35;;;;;;;17.59;68.95;99509.75;5110895;28;20479;-83
2023/06/09 00:48:45;;;;;;;1.55;0.85;;;;;;;17.39;69.05;99465.34;5108783;28;20042;-85
2023/06/09 00:51:10;;;;;;;1.33;1.17;;;;;;;17.46;69.57;99493.47;5111070;28;20027;-84
2023/06/09 00:53:36;;;;;;;2.92;2.40;;;;;;;17.35;69.64;99493.97;5099176;28;20132;-83
2023/06/09 00:56:01;;;;;;;2.28;1.10;;;;;;;17.49;69.22;99489.81;5089999;28;20028;-84
2023/06/09 00:58:27;;;;;;;2.03;1.63;;;;;;;17.33;69.68;99484.28;5089915;28;20051;-84
2023/06/09 01:00:53;;;;;;;2.13;1.35;;;;;;;17.41;69.65;99495.50;5090314;28;20027;-84
2023/06/09 01:03:19;;;;;;;2.17;1.20;;;;;;;17.28;69.66;99467.66;5091654;28;20456;-84
2023/06/09 01:05:49;;;;;;;2.45;1.05;;;;;;;17.38;68.50;99462.75;5089870;28;20028;-84
2023/06/09 01:08:51;;;;;;;3.03;2.03;;;;;;;17.62;68.99;99498.09;5090427;28;20024;-85
2023/06/09 01:12:10;;;;;;;3.85;1.90;;;;;;;17.53;69.37;99496.69;5008602;28;20049;-86
2023/06/09 01:14:50;;;;;;;2.47;1.48;;;;;;;17.18;69.85;99468.09;5006068;28;20038;-84
2023/06/09 01:17:18;;;;;;;4.40;1.30;;;;;;;17.26;70.34;99474.88;4990695;28;20093;-83
2023/06/09 01:19:51;;;;;;;3.10;1.08;;;;;;;17.21;70.43;99472.41;5008419;28;20077;-83
2023/06/09 01:22:34;;;;;;;2.17;1.35;;;;;;;17.36;69.55;99471.72;5007837;28;20070;-84
2023/06/09 01:25:37;;;;;;;1.35;1.10;;;;;;;17.25;69.62;99481.97;5007856;28;20077;-84
2023/06/09 01:28:11;;;;;;;3.15;1.75;;;;;;;16.87;69.88;99475.72;5006672;28;20129;-84
2023/06/09 01:30:40;;;;;;;2.70;1.58;;;;;;;16.87;70.23;99475.72;5007391;28;20030;-84
2023/06/09 01:33:09;;;;;;;2.75;1.60;;;;;;;17.02;69.93;99499.00;5007680;28;20040;-84
2023/06/09 01:35:36;;;;;;;2.75;1.23;;;;;;;16.86;69.91;99476.63;5007801;28;20042;-84
2023/06/09 01:38:03;;;;;;;3.45;1.83;;;;;;;16.97;70.04;99501.03;5000056;28;20045;-83
2023/06/09 01:40:31;;;;;;;1.75;1.27;;;;;;;16.94;68.66;99486.03;4991837;28;20062;-82
2023/06/09 01:42:59;;;;;;;1.15;1.00;;;;;;;16.80;68.69;99504.41;4991611;28;20046;-83
2023/06/09 01:45:25;;;;;;;2.67;1.70;;;;;;;16.68;68.11;99481.81;5009084;28;20068;-84
2023/06/09 01:47:51;;;;;;;1.92;1.13;;;;;;;16.33;68.56;99491.31;5045295;28;20458;-84
2023/06/09 01:50:31;;;;;;;3.95;2.53;;;;;;;15.97;70.02;99471.47;5075444;28;20036;-83
2023/06/09 01:53:12;;;;;;;1.13;0.73;;;;;;;16.21;70.06;99484.72;5093293;28;20056;-84
2023/06/09 01:55:44;;;;;;;1.63;1.27;;;;;;;16.29;69.55;99463.97;5099737;28;20035;-84
2023/06/09 01:58:17;;;;;;;2.55;1.13;;;;;;;16.58;69.14;99496.50;5113705;28;20035;-83
2023/06/09 02:00:46;;;;;;;1.45;1.30;;;;;;;16.56;69.15;99485.91;5112591;28;20024;-84
2023/06/09 02:03:16;;;;;;;2.40;1.63;;;;;;;16.35;70.18;99485.00;5113875;28;20512;-83
2023/06/09 02:05:43;;;;;;;3.83;1.83;;;;;;;16.02;71.71;99456.22;5114103;28;20035;-83
2023/06/09 02:08:09;;;;;;;4.72;2.60;;;;;;;16.60;70.96;99511.44;5113573;28;20078;-84
2023/06/09 02:10:36;;;;;;;2.92;1.92;;;;;;;16.44;70.35;99450.00;5112183;28;20108;-83
2023/06/09 02:13:16;;;;;;;3.13;1.90;;;;;;;16.37;70.92;99464.50;5113216;28;20054;-84
2023/06/09 02:15:46;;;;;;;1.40;1.27;;;;;;;16.61;70.51;99472.41;5113475;28;20026;-83
2023/06/09 02:18:15;;;;;;;4.13;2.03;;;;;;;16.55;70.52;99468.19;5113719;28;20118;-83
2023/06/09 02:20:42;;;;;;;2.38;1.40;;;;;;;16.68;69.89;99451.69;5093761;28;20023;-83
2023/06/09 02:23:08;;;;;;;4.55;1.52;;;;;;;16.67;69.95;99455.25;5099743;28;20120;-83
2023/06/09 02:25:34;;;;;;;2.55;1.63;;;;;;;16.89;69.69;99498.72;5074571;28;20032;-83
2023/06/09 02:28:03;;;;;;;5.25;2.28;;;;;;;16.83;69.33;99504.28;5092791;28;20092;-83
2023/06/09 02:30:28;;;;;;;2.33;1.33;;;;;;;16.59;68.99;99464.47;5093245;28;20142;-83
2023/06/09 02:32:55;;;;;;;3.65;2.42;;;;;;;16.45;68.93;99465.06;5093662;28;20059;-84
2023/06/09 02:35:20;;;;;;;0.95;0.50;;;;;;;16.56;69.24;99474.38;5093354;28;20035;-83
2023/06/09 02:37:46;;;;;;;5.28;1.75;;;;;;;16.55;69.46;99476.19;5093009;28;20114;-83
2023/06/09 02:40:12;;;;;;;1.95;1.25;;;;;;;16.80;69.08;99507.06;5092885;28;20040;-83
2023/06/09 02:42:38;;;;;;;4.25;1.90;;;;;;;16.58;68.44;99476.03;5093505;28;20047;-83
2023/06/09 02:45:06;;;;;;;2.65;1.50;;;;;;;16.70;68.95;99501.28;5092822;28;20028;-83
2023/06/09 02:47:32;;;;;;;2.72;1.77;;;;;;;16.45;69.65;99507.66;5092816;28;20104;-83
2023/06/09 02:49:57;;;;;;;2.40;1.80;;;;;;;16.32;69.85;99473.63;5093221;28;20081;-83
2023/06/09 02:52:23;;;;;;;1.83;1.35;;;;;;;16.56;70.03;99514.31;5092575;28;20485;-85
2023/06/09 02:54:48;;;;;;;9.93;2.50;;;;;;;16.27;69.86;99471.16;5093166;28;20594;-83
2023/06/09 02:57:14;;;;;;;15.18;2.17;;;;;;;16.57;69.79;99516.91;5092402;28;20497;-83
2023/06/09 02:59:39;;;;;;;4.82;2.17;;;;;;;16.38;70.18;99498.19;5092298;28;20532;-85
2023/06/09 03:02:06;;;;;;;4.93;3.10;;;;;;;16.55;70.31;99518.78;5092513;28;20037;-86
2023/06/09 03:04:34;;;;;;;3.05;1.60;;;;;;;16.34;70.06;99487.72;5092440;28;20024;-85
2023/06/09 03:07:00;;;;;;;3.53;2.35;;;;;;;16.21;70.09;99474.09;5091922;28;20039;-85
2023/06/09 03:09:25;;;;;;;2.95;1.55;;;;;;;16.52;70.03;99486.09;5091527;28;20063;-85
2023/06/09 03:11:51;;;;;;;4.60;2.50;;;;;;;16.31;69.63;99478.06;5091767;28;20119;-85
2023/06/09 03:14:16;;;;;;;3.95;2.20;;;;;;;16.64;69.63;99522.84;5092996;28;20042;-85
2023/06/09 03:16:42;;;;;;;2.60;1.65;;;;;;;16.55;70.15;99518.78;5091907;28;20383;-84
2023/06/09 03:19:09;;;;;;;9.00;2.85;;;;;;;16.55;70.88;99532.09;5092211;28;20038;-85
2023/06/09 03:21:35;;;;;;;5.05;3.53;;;;;;;16.32;70.21;99479.81;5091359;28;20024;-85
2023/06/09 03:24:03;;;;;;;1.92;1.70;;;;;;;16.39;70.05;99469.75;5073220;28;20039;-86
2023/06/09 03:26:29;;;;;;;2.30;1.30;;;;;;;16.77;70.55;99526.69;5091875;28;20036;-84
2023/06/09 03:28:55;;;;;;;1.67;1.20;;;;;;;16.62;70.29;99490.06;5091238;28;20047;-85
2023/06/09 03:31:20;;;;;;;3.17;2.17;;;;;;;16.69;70.07;99488.88;5090551;28;20078;-83
2023/06/09 03:33:46;;;;;;;4.13;2.88;;;;;;;16.77;69.95;99504.53;5075320;27;20024;-84
2023/06/09 03:36:11;;;;;;;5.32;2.95;;;;;;;16.72;70.03;99503.88;5103032;28;20028;-83
2023/06/09 03:38:37;;;;;;;2.97;2.22;;;;;;;16.69;69.19;99470.25;5111594;28;20176;-83
2023/06/09 03:41:05;;;;;;;1.90;1.40;;;;;;;17.04;69.32;99546.91;5106261;28;20044;-83
2023/06/09 03:43:31;;;;;;;7.45;1.98;;;;;;;16.97;68.53;99525.88;5090333;28;20066;-85
2023/06/09 03:45:56;;;;;;;7.97;1.77;;;;;;;16.95;69.19;99535.72;5073944;28;20070;-84
2023/06/09 03:48:22;;;;;;;1.77;1.63;;;;;;;16.97;69.39;99522.34;5072051;28;20036;-84
2023/06/09 03:50:47;;;;;;;3.47;1.92;;;;;;;16.99;69.50;99533.78;5073379;28;20029;-85
2023/06/09 03:53:13;;;;;;;1.17;0.75;;;;;;;16.78;69.59;99485.81;5091323;28;20085;-85
2023/06/09 03:55:38;;;;;;;1.95;1.33;;;;;;;17.12;69.46;99520.81;5106922;28;20042;-85
2023/06/09 03:58:04;;;;;;;2.13;1.65;;;;;;;17.30;69.22;99524.44;5109641;28;20080;-84
2023/06/09 04:00:30;;;;;;;3.05;2.22;;;;;;;17.42;68.94;99531.00;5093074;28;20065;-84
2023/06/09 04:02:56;;;;;;;18.23;3.17;;;;;;;17.53;68.92;99542.03;5092495;28;20039;-84
2023/06/09 04:05:21;;;;;;;3.13;1.50;;;;;;;17.45;68.54;99509.53;5113452;27;20043;-84
2023/06/09 04:07:47;;;;;;;2.40;1.55;;;;;;;17.76;67.44;99530.28;5108840;27;20524;-83
2023/06/09 04:10:12;;;;;;;2.45;1.83;;;;;;;17.56;67.99;99491.22;5092453;27;20032;-83
2023/06/09 04:12:41;;;;;;;3.03;2.25;;;;;;;17.85;67.87;99524.53;5094850;28;20032;-82
2023/06/09 04:15:08;;;;;;;5.40;2.72;;;;;;;17.81;68.10;99495.41;5105314;27;20126;-83
2023/06/09 04:17:36;;;;;;;2.22;1.48;;;;;;;18.05;68.42;99506.72;5103133;27;20085;-82
2023/06/09 04:20:04;;;;;;;5.55;2.53;;;;;;;17.98;69.10;99490.16;5107580;27;20035;-84
2023/06/09 04:22:30;;;;;;;3.08;2.30;;;;;;;18.24;68.81;99520.03;5112853;28;20027;-83
2023/06/09 04:24:56;;;;;;;5.68;3.08;;;;;;;18.35;68.77;99504.34;5111013;28;20027;-83
2023/06/09 04:27:23;;;;;;;5.28;2.65;;;;;;;18.51;68.33;99498.25;5092513;28;20474;-83
2023/06/09 04:29:49;;;;;;;4.30;1.85;;;;;;;18.74;67.80;99526.44;5091950;28;20043;-84
2023/06/09 04:32:16;;;;;;;2.83;1.60;;;;;;;18.69;67.90;99518.66;5092575;28;20027;-82
2023/06/09 04:34:45;;;;;;;4.22;2.88;;;;;;;18.56;65.81;99459.66;5079355;28;20051;-84
2023/06/09 04:37:12;;;;;;;5.53;1.65;;;;;;;19.02;66.24;99523.22;5096416;28;20032;-84
2023/06/09 04:39:41;;;;;;;2.40;1.92;;;;;;;19.07;65.07;99490.91;5119319;27;20058;-83
2023/06/09 04:42:07;;;;;;;2.30;1.38;;;;;;;19.26;64.12;99522.84;5107397;28;20024;-83
2023/06/09 04:44:33;;;;;;;4.35;2.85;;;;;;;19.43;63.84;99533.53;5114587;28;20012;-85
2023/06/09 04:47:00;;;;;;;5.32;2.25;;;;;;;19.64;63.35;99541.31;5119561;28;20028;-83
2023/06/09 04:49:26;;;;;;;4.43;2.08;;;;;;;19.40;63.72;99519.44;5122183;28;20016;-81
2023/06/09 04:51:54;;;;;;;2.15;1.55;;;;;;;19.88;62.49;99547.19;5116621;28;20091;-83
2023/06/09 04:54:20;;;;;;;3.05;1.95;;;;;;;20.01;61.15;99525.94;5095097;28;20039;-81
2023/06/09 04:56:52;;;;;;;2.30;1.77;;;;;;;20.13;60.41;99546.66;5093647;28;20024;-81
2023/06/09 04:59:18;;;;;;;7.00;2.10;;;;;;;19.72;60.21;99531.06;5086335;28;20024;-81
2023/06/09 05:01:46;;;;;;;3.90;2.20;;;;;;;20.06;60.75;99539.91;5070632;28;20490;-82
2023/06/09 05:04:12;;;;;;;4.40;2.67;;;;;;;20.28;60.38;99539.56;5090627;28;20075;-83
2023/06/09 05:06:38;;;;;;;2.97;1.77;;;;;;;20.29;60.14;99509.13;5087403;28;20159;-83
2023/06/09 05:09:07;;;;;;;2.75;2.00;;;;;;;20.79;59.09;99527.69;5092162;28;20488;-82
2023/06/09 05:11:34;;;;;;;3.13;1.70;;;;;;;21.19;56.92;99525.28;5085676;28;20441;-82
2023/06/09 05:13:59;;;;;;;2.75;1.13;;;;;;;21.28;57.22;99538.97;5086243;28;20038;-82
2023/06/09 05:16:28;;;;;;;4.50;2.47;;;;;;;20.86;57.54;99532.59;5091663;28;20024;-80
2023/06/09 05:18:57;;;;;;;1.85;1.63;;;;;;;20.78;58.91;99516.13;5087918;28;20035;-83
2023/06/09 05:21:24;;;;;;;5.03;2.15;;;;;;;20.64;57.92;99529.47;5086120;28;20114;-83
2023/06/09 05:23:50;;;;;;;3.20;1.65;;;;;;;20.60;58.71;99477.00;5089001;28;20099;-82
2023/06/09 05:26:17;;;;;;;3.72;2.35;;;;;;;20.55;58.26;99498.69;5091409;28;20024;-82
2023/06/09 05:28:43;;;;;;;2.95;1.50;;;;;;;20.94;59.31;99524.09;5090950;28;20024;-83
2023/06/09 05:31:09;;;;;;;4.75;2.90;;;;;;;21.10;56.52;99518.66;5089672;28;20088;-82
2023/06/09 05:33:36;;;;;;;1.52;1.08;;;;;;;21.02;56.81;99510.22;5088779;28;20032;-82
2023/06/09 05:36:01;;;;;;;1.55;1.05;;;;;;;21.18;57.71;99480.63;5090998;28;20036;-83
2023/06/09 05:38:27;;;;;;;2.80;1.63;;;;;;;21.02;54.93;99478.03;5089787;28;21456;-83
2023/06/09 05:40:52;;;;;;;1.98;1.63;;;;;;;21.43;54.08;99501.44;5090258;28;20067;-82
2023/06/09 05:43:18;;;;;;;3.15;2.65;;;;;;;21.69;53.35;99513.22;5091450;28;20038;-82
2023/06/09 05:45:44;;;;;;;4.53;1.15;;;;;;;22.39;51.96;99504.22;5091520;28;20040;-81
2023/06/09 05:48:09;;;;;;;13.43;2.15;;;;;;;22.91;51.09;99525.81;5096503;28;20036;-83
2023/06/09 05:50:35;;;;;;;4.20;1.80;;;;;;;22.41;51.71;99496.91;5087184;28;20028;-82
2023/06/09 05:53:00;;;;;;;5.85;2.45;;;;;;;22.22;52.77;99508.00;5085837;28;20107;-81
2023/06/09 05:55:26;;;;;;;3.83;2.10;;;;;;;22.79;50.33;99497.97;5091888;28;20026;-81
2023/06/09 05:57:53;;;;;;;4.53;1.98;;;;;;;22.90;52.00;99524.97;5092513;28;20382;-81
2023/06/09 06:00:19;;;;;;;8.93;2.25;;;;;;;23.40;49.26;99490.13;5090958;28;20028;-82
2023/06/09 06:02:45;;;;;;;6.00;1.58;;;;;;;23.16;48.90;99468.53;5089400;28;20023;-84
2023/06/09 06:05:12;;;;;;;5.00;1.70;;;;;;;23.41;48.87;99506.16;5089536;28;20038;-82
2023/06/09 06:07:38;;;;;;;3.00;2.00;;;;;;;23.87;45.96;99498.47;5092769;28;20032;-82
2023/06/09 06:10:05;;;;;;;4.85;2.60;;;;;;;24.22;45.07;99501.22;5091791;28;20032;-82
2023/06/09 06:12:32;;;;;;;3.20;1.77;;;;;;;24.66;45.73;99504.25;5092524;28;20040;-82
2023/06/09 06:14:58;;;;;;;2.15;1.10;;;;;;;24.89;44.15;99528.59;5091183;28;20032;-81
2023/06/09 06:17:23;;;;;;;2.78;1.38;;;;;;;24.41;44.99;99489.06;5095660;28;20036;-83
2023/06/09 06:19:50;;;;;;;1.38;1.05;;;;;;;24.45;45.71;99475.25;5092727;28;20024;-82
2023/06/09 06:22:15;;;;;;;3.50;1.67;;;;;;;24.96;44.09;99516.34;5091673;28;20042;-82
2023/06/09 06:24:40;;;;;;;1.40;1.20;;;;;;;25.31;44.23;99505.50;5094696;28;20023;-81
2023/06/09 06:27:07;;;;;;;18.33;2.30;;;;;;;25.26;43.33;99504.13;5098886;28;20028;-82
2023/06/09 06:29:33;;;;;;;5.10;1.48;;;;;;;25.31;43.63;99510.91;5094652;28;20042;-82
2023/06/09 06:31:59;;;;;;;2.38;1.83;;;;;;;24.64;48.30;99476.56;5096472;28;20028;-82
2023/06/09 06:34:25;;;;;;;3.47;1.42;;;;;;;24.62;46.16;99476.69;5101498;28;20028;-82
2023/06/09 06:36:52;;;;;;;2.95;1.70;;;;;;;24.49;46.26;99476.69;5101574;28;20035;-82
2023/06/09 06:39:17;;;;;;;4.20;1.38;;;;;;;25.54;43.61;99492.84;5100610;28;20052;-82
2023/06/09 06:41:43;;;;;;;2.30;1.20;;;;;;;26.25;43.79;99487.09;5101543;28;20081;-84
2023/06/09 06:44:08;;;;;;;2.67;1.48;;;;;;;26.08;42.71;99458.78;5090826;28;20035;-84
2023/06/09 06:46:34;;;;;;;3.78;1.70;;;;;;;26.89;41.75;99498.84;5095619;28;20030;-85
2023/06/09 06:49:00;;;;;;;3.70;2.15;;;;;;;27.02;40.97;99468.91;5095802;28;20023;-83
2023/06/09 06:51:26;;;;;;;1.90;1.67;;;;;;;27.19;39.90;99469.25;5094693;27;20486;-84
2023/06/09 06:53:51;;;;;;;1.50;1.20;;;;;;;26.19;42.42;99468.69;5098415;28;20036;-84
2023/06/09 06:56:16;;;;;;;2.80;2.00;;;;;;;26.07;42.24;99448.09;5098455;28;20023;-82
2023/06/09 06:58:42;;;;;;;1.85;1.48;;;;;;;26.71;42.06;99478.78;5097578;28;20024;-82
2023/06/09 07:01:07;;;;;;;3.75;2.28;;;;;;;26.84;42.11;99467.78;5098678;28;20120;-83
2023/06/09 07:03:35;;;;;;;2.35;1.95;;;;;;;27.15;39.65;99464.09;5100228;28;20542;-84
2023/06/09 07:06:02;;;;;;;4.72;2.42;;;;;;;27.33;37.92;99447.28;5096776;28;21763;-83
2023/06/09 07:08:28;;;;;;;2.83;1.52;;;;;;;27.40;38.63;99451.13;5095104;28;20055;-85
2023/06/09 07:10:53;;;;;;;3.17;1.90;;;;;;;27.63;36.85;99456.34;5091318;28;20062;-84
2023/06/09 07:13:19;;;;;;;3.35;2.78;;;;;;;28.12;37.92;99476.28;5096784;28;20039;-83
2023/06/09 07:15:44;;;;;;;7.20;2.03;;;;;;;27.84;36.25;99430.00;5093290;28;20942;-83
2023/06/09 07:18:11;;;;;;;4.68;2.03;;;;;;;28.10;36.16;99455.72;5092565;27;20036;-84
2023/06/09 07:20:36;;;;;;;4.97;1.27;;;;;;;28.23;35.26;99431.91;5099639;28;20056;-84
2023/06/09 07:23:02;;;;;;;2.75;1.63;;;;;;;28.04;37.33;99421.94;5091179;28;20027;-84
2023/06/09 07:25:27;;;;;;;3.65;2.38;;;;;;;28.46;36.97;99434.34;5088002;28;20028;-84
2023/06/09 07:27:53;;;;;;;3.38;1.90;;;;;;;28.58;35.82;99412.34;5092796;28;20039;-84
2023/06/09 07:30:18;;;;;;;2.92;1.65;;;;;;;28.70;35.42;99451.06;5093715;28;20019;-84
2023/06/09 07:32:44;;;;;;;5.72;2.15;;;;;;;28.54;34.73;99465.16;5096311;28;20035;-85
2023/06/09 07:35:12;;;;;;;3.08;1.20;;;;;;;28.63;35.32;99452.63;5095175;28;20515;-85
2023/06/09 07:37:39;;;;;;;11.70;1.70;;;;;;;28.81;34.52;99451.88;5097405;28;20035;-85
2023/06/09 07:40:06;;;;;;;5.47;2.33;;;;;;;28.43;35.31;99421.91;5086897;28;20055;-86
2023/06/09 07:42:32;;;;;;;2.80;1.80;;;;;;;27.66;37.92;99427.09;5097277;28;20397;-86
2023/06/09 07:44:58;;;;;;;3.45;1.98;;;;;;;28.22;36.23;99444.63;5079462;28;20028;-87
2023/06/09 07:47:23;;;;;;;6.45;1.30;;;;;;;28.50;35.91;99438.47;5084646;28;20572;-86
2023/06/09 07:49:48;;;;;;;5.57;1.45;;;;;;;28.67;34.84;99429.63;5078078;28;20043;-86
2023/06/09 07:52:15;;;;;;;2.63;1.77;;;;;;;29.35;35.92;99430.41;5072427;28;20029;-86
2023/06/09 07:54:40;;;;;;;1.50;0.95;;;;;;;29.78;34.88;99424.31;5079812;28;20028;-84
2023/06/09 07:57:06;;;;;;;3.42;1.15;;;;;;;29.76;35.13;99450.78;5076665;28;20492;-84
2023/06/09 07:59:31;;;;;;;5.40;1.27;;;;;;;29.34;35.17;99447.75;5078899;28;20545;-84
2023/06/09 08:01:57;;;;;;;1.77;1.10;;;;;;;29.47;34.83;99410.19;5080564;28;20027;-85
2023/06/09 08:04:22;;;;;;;2.22;1.58;;;;;;;29.22;35.10;99422.63;5084104;28;20409;-83
2023/06/09 08:06:48;;;;;;;2.83;1.63;;;;;;;29.38;33.92;99421.97;5079482;28;20044;-83
2023/06/09 08:09:14;;;;;;;2.80;1.50;;;;;;;29.02;35.26;99452.53;5070385;28;20029;-84
2023/06/09 08:11:39;;;;;;;4.10;1.98;;;;;;;29.73;34.52;99409.47;5076521;28;20094;-87
2023/06/09 08:14:08;;;;;;;4.38;1.98;;;;;;;30.01;32.61;99410.28;5074683;28;20032;-86
2023/06/09 08:16:33;;;;;;;2.00;1.40;;;;;;;30.39;32.57;99446.38;5075198;28;20044;-86
2023/06/09 08:18:59;;;;;;;3.00;2.28;;;;;;;30.69;31.87;99433.34;5077006;28;20034;-86
2023/06/09 08:21:25;;;;;;;2.67;1.67;;;;;;;30.69;32.33;99457.84;5076473;28;20016;-87
2023/06/09 08:23:50;;;;;;;2.60;1.30;;;;;;;30.10;32.16;99416.69;5074152;28;20440;-85
2023/06/09 08:26:16;;;;;;;3.05;1.85;;;;;;;29.66;32.11;99409.25;5076827;28;20077;-87
2023/06/09 08:28:41;;;;;;;2.70;1.73;;;;;;;30.40;34.93;99455.38;5074220;28;20031;-87
2023/06/09 08:31:08;;;;;;;3.28;1.90;;;;;;;30.08;33.05;99419.56;5074191;28;20166;-84
2023/06/09 08:33:35;;;;;;;3.10;1.23;;;;;;;29.75;32.37;99405.59;5072100;28;20024;-86
2023/06/09 08:36:04;;;;;;;2.95;1.60;;;;;;;30.00;34.00;99397.72;5076710;28;20413;-86
2023/06/09 08:38:33;;;;;;;2.22;1.27;;;;;;;29.88;32.62;99404.41;5072210;28;20060;-88
2023/06/09 08:41:06;;;;;;;4.93;1.48;;;;;;;29.91;34.02;99413.09;5094973;28;20067;-85
2023/06/09 08:43:32;;;;;;;2.17;1.50;;;;;;;29.71;32.64;99406.06;5099062;28;20489;-87
2023/06/09 08:46:00;;;;;;;3.80;2.08;;;;;;;29.95;36.82;99430.81;5096592;28;20028;-86
2023/06/09 08:48:28;;;;;;;3.50;2.38;;;;;;;30.41;33.69;99424.47;5097503;28;20027;-86
2023/06/09 08:50:54;;;;;;;2.28;1.55;;;;;;;29.85;33.82;99386.53;5080820;28;20032;-85
2023/06/09 08:53:20;;;;;;;2.40;1.50;;;;;;;29.96;32.49;99405.31;5099246;28;20028;-85
2023/06/09 08:55:47;;;;;;;4.20;2.05;;;;;;;29.60;33.14;99386.25;5091121;28;20474;-87
2023/06/09 08:58:15;;;;;;;2.17;1.42;;;;;;;30.38;33.15;99400.25;5095752;28;20027;-86
2023/06/09 09:00:40;;;;;;;2.63;0.98;;;;;;;30.45;33.81;99418.53;5094882;28;20085;-87
2023/06/09 09:03:06;;;;;;;2.25;1.23;;;;;;;30.57;33.05;99396.50;5094440;28;20028;-87
2023/06/09 09:05:32;;;;;;;2.42;1.58;;;;;;;30.13;33.92;99375.56;5075116;28;21751;-88
2023/06/09 09:07:57;;;;;;;1.75;1.23;;;;;;;30.48;32.87;99384.75;5094144;28;20047;-86
2023/06/09 09:10:23;;;;;;;2.47;1.35;;;;;;;30.76;33.27;99403.63;5094293;28;20486;-86
2023/06/09 09:12:50;;;;;;;5.22;1.73;;;;;;;30.74;32.88;99395.63;5093079;28;20035;-88
2023/06/09 09:15:17;;;;;;;2.25;1.42;;;;;;;30.90;31.91;99397.59;5093849;28;20035;-86
2023/06/09 09:17:45;;;;;;;2.47;1.45;;;;;;;30.74;33.56;99408.38;5098018;28;20103;-87
2023/06/09 09:20:14;;;;;;;4.05;2.05;;;;;;;30.44;33.92;99392.34;5106316;28;20015;-87
2023/06/09 09:22:50;;;;;;;2.15;1.27;;;;;;;29.98;33.39;99331.75;5077365;28;20026;-89
2023/06/09 09:25:27;;;;;;;2.58;1.27;;;;;;;30.27;33.56;99376.88;5094460;28;20060;-87
2023/06/09 09:28:03;;;;;;;2.78;1.30;;;;;;;30.90;32.86;99386.69;5078731;28;20119;-87
2023/06/09 09:30:45;;;;;;;2.55;1.30;;;;;;;31.53;32.85;99388.19;5092872;28;20031;-87
2023/06/09 09:33:18;;;;;;;1.48;1.17;;;;;;;31.13;32.97;99327.09;5095107;28;20023;-87
2023/06/09 09:35:47;;;;;;;2.28;1.83;;;;;;;31.12;32.31;99341.72;5099281;28;20059;-87
2023/06/09 09:38:18;;;;;;;3.72;1.88;;;;;;;30.56;33.12;99367.63;5092539;28;20026;-87
2023/06/09 09:40:50;;;;;;;3.45;1.50;;;;;;;30.61;32.63;99368.81;5072494;28;20103;-87
2023/06/09 09:43:16;;;;;;;2.42;1.50;;;;;;;30.52;33.98;99337.13;5077290;28;20100;-87
2023/06/09 09:45:46;;;;;;;4.90;1.58;;;;;;;31.14;32.78;99355.19;5101793;28;20042;-86
2023/06/09 09:48:14;;;;;;;2.47;1.58;;;;;;;30.71;32.95;99352.41;5089243;28;20171;-85
2023/06/09 09:50:42;;;;;;;2.10;1.30;;;;;;;30.65;33.44;99372.09;5092715;28;20032;-84
2023/06/09 09:53:08;;;;;;;6.93;2.92;;;;;;;30.78;33.27;99353.44;5088728;28;20036;-84
2023/06/09 09:55:37;;;;;;;2.22;1.35;;;;;;;30.94;33.81;99366.31;5089230;28;20040;-84
2023/06/09 09:58:05;;;;;;;2.92;1.60;;;;;;;30.47;34.42;99310.41;5088494;28;20081;-83
2023/06/09 10:00:35;;;;;;;3.70;1.75;;;;;;;31.09;33.77;99330.31;5074110;28;20036;-82
2023/06/09 10:03:07;;;;;;;4.25;1.70;;;;;;;30.98;33.60;99353.25;5097766;27;20090;-84
2023/06/09 10:05:36;;;;;;;3.35;1.73;;;;;;;30.69;32.76;99325.34;5086843;28;20036;-84
2023/06/09 10:08:03;;;;;;;2.38;1.08;;;;;;;30.23;33.63;99315.63;5079730;28;20153;-84
2023/06/09 10:10:30;;;;;;;1.90;1.30;;;;;;;29.88;34.83;99326.41;5102446;28;20412;-83
2023/06/09 10:12:57;;;;;;;4.30;1.85;;;;;;;30.30;35.45;99322.16;5095366;27;20039;-84
2023/06/09 10:15:24;;;;;;;5.43;1.30;;;;;;;31.03;33.44;99345.44;5093429;27;20096;-86
2023/06/09 10:17:53;;;;;;;2.03;1.13;;;;;;;30.94;32.79;99339.09;5101513;28;20158;-83
2023/06/09 10:20:19;;;;;;;2.90;1.60;;;;;;;30.64;33.76;99343.16;5081606;28;20428;-84
2023/06/09 10:22:46;;;;;;;4.03;2.20;;;;;;;31.12;32.13;99338.16;5090924;28;20108;-85
2023/06/09 10:25:12;;;;;;;2.20;0.98;;;;;;;30.72;32.56;99310.53;5093009;28;20039;-85
2023/06/09 10:27:38;;;;;;;2.85;1.63;;;;;;;30.73;32.77;99298.66;5096761;28;20032;-84
2023/06/09 10:30:05;;;;;;;2.22;1.42;;;;;;;30.54;33.86;99321.50;5093494;28;20042;-84
2023/06/09 10:32:34;;;;;;;2.47;1.35;;;;;;;30.23;33.07;99329.25;5101748;27;20040;-84
2023/06/09 10:35:01;;;;;;;3.88;1.67;;;;;;;30.15;33.73;99311.88;5102316;28;20416;-84
2023/06/09 10:37:31;;;;;;;2.78;1.67;;;;;;;30.76;33.42;99339.16;5098042;28;20043;-83
2023/06/09 10:40:34;;;;;;;2.47;1.58;;;;;;;30.86;35.01;99339.91;5099222;28;20040;-86
2023/06/09 10:43:34;;;;;;;2.80;1.57;;;;;;;31.39;34.48;99334.34;5096663;28;20100;-84
2023/06/09 10:46:00;;;;;;;1.95;1.25;;;;;;;30.62;33.38;99305.22;5092056;28;20024;-83
2023/06/09 10:48:44;;;;;;;2.63;1.55;;;;;;;30.73;34.56;99334.03;5104111;28;20409;-84
2023/06/09 10:51:28;;;;;;;5.20;1.30;;;;;;;31.08;34.74;99321.31;5100891;27;20027;-91
2023/06/09 10:54:12;;;;;;;2.53;1.37;;;;;;;30.38;33.51;99311.31;5077046;28;20040;-87
2023/06/09 10:56:41;;;;;;;1.67;1.45;;;;;;;30.23;33.94;99289.31;5096464;28;20778;-86
2023/06/09 10:59:25;;;;;;;1.77;1.50;;;;;;;30.68;33.74;99314.63;5093212;27;20757;-87
2023/06/09 11:02:02;;;;;;;2.83;1.40;;;;;;;30.89;32.92;99306.03;5093787;28;20417;-86
2023/06/09 11:04:41;;;;;;;1.95;1.10;;;;;;;30.80;32.58;99304.28;5092149;27;20066;-88
2023/06/09 11:07:14;;;;;;;4.82;1.67;;;;;;;30.69;33.06;99259.16;5099580;27;20410;-87
2023/06/09 11:10:01;;;;;;;2.15;1.65;;;;;;;30.76;32.46;99268.38;5097880;27;20020;-87
2023/06/09 11:12:38;;;;;;;3.45;2.00;;;;;;;31.49;32.68;99306.94;5095867;28;20119;-86
2023/06/09 11:15:06;;;;;;;3.95;1.58;;;;;;;31.05;33.61;99297.97;5093054;28;20028;-83
2023/06/09 11:17:39;;;;;;;3.75;1.67;;;;;;;30.55;33.95;99278.81;5097525;28;20047;-86
2023/06/09 11:20:11;;;;;;;3.05;1.77;;;;;;;31.01;34.56;99298.44;5091785;28;20034;-85
2023/06/09 11:22:43;;;;;;;2.17;1.23;;;;;;;31.31;34.23;99291.59;5094103;28;20508;-85
2023/06/09 11:25:15;;;;;;;1.45;1.35;;;;;;;30.87;32.85;99286.28;5096884;27;20032;-87
2023/06/09 11:27:42;;;;;;;3.85;1.17;;;;;;;29.69;34.65;99258.59;5098372;28;20133;-85
2023/06/09 11:30:11;;;;;;;7.13;1.10;;;;;;;29.77;34.50;99240.50;5095175;27;20039;-85
2023/06/09 11:33:04;;;;;;;3.95;1.30;;;;;;;30.48;33.97;99276.75;5097803;28;20024;-84
2023/06/09 11:35:44;;;;;;;1.55;1.02;;;;;;;30.26;33.36;99267.25;5097619;27;20039;-85
2023/06/09 11:38:11;;;;;;;2.35;1.25;;;;;;;30.12;34.29;99287.72;5100949;27;20043;-84
2023/06/09 11:40:57;;;;;;;2.63;1.27;;;;;;;30.57;33.95;99288.53;5097068;28;20052;-84